createdAt,value
2018-05-27T00:00:17.688Z,98.72
2018-05-27T00:01:17.628Z,98.91
2018-05-27T00:02:17.567Z,98.81
2018-05-27T00:03:17.508Z,98.72
2018-05-27T00:04:17.446Z,99.10
2018-05-27T00:05:17.385Z,99.68
2018-05-27T00:06:17.325Z,99.68
2018-05-27T00:07:17.265Z,99.48
2018-05-27T00:08:17.204Z,99.96
2018-05-27T00:09:17.145Z,99.39
2018-05-27T00:10:17.082Z,99.99
2018-05-27T00:11:17.023Z,99.96
2018-05-27T00:12:16.962Z,99.99
2018-05-27T00:13:16.903Z,99.68
2018-05-27T00:14:16.841Z,99.39
2018-05-27T00:15:16.782Z,99.77
2018-05-27T00:16:16.724Z,99.77
2018-05-27T00:17:16.660Z,99.48
2018-05-27T00:18:16.599Z,99.68
2018-05-27T00:19:16.539Z,99.58
2018-05-27T00:20:16.478Z,99.58
2018-05-27T00:21:16.417Z,99.99
2018-05-27T00:22:16.357Z,99.99
2018-05-27T00:23:16.295Z,99.99
2018-05-27T00:24:16.236Z,99.99
2018-05-27T00:25:16.175Z,99.99
2018-05-27T00:26:16.112Z,99.99
2018-05-27T00:27:16.055Z,99.99
2018-05-27T00:28:15.992Z,99.99
2018-05-27T00:29:15.932Z,99.99
2018-05-27T00:30:15.871Z,99.99
2018-05-27T00:31:15.811Z,99.96
2018-05-27T00:32:15.752Z,99.39
2018-05-27T00:33:15.691Z,99.77
2018-05-27T00:34:15.629Z,99.68
2018-05-27T00:35:15.568Z,99.99
2018-05-27T00:36:15.508Z,99.99
2018-05-27T00:37:15.449Z,99.48
2018-05-27T00:38:15.386Z,99.87
2018-05-27T00:39:15.326Z,99.77
2018-05-27T00:40:15.268Z,99.99
2018-05-27T00:41:15.203Z,99.99
2018-05-27T00:42:15.144Z,99.99
2018-05-27T00:43:15.084Z,99.99
2018-05-27T00:44:15.023Z,99.99
2018-05-27T00:45:14.961Z,99.99
2018-05-27T00:46:14.900Z,99.99
2018-05-27T00:47:14.839Z,99.99
2018-05-27T00:48:14.780Z,99.99
2018-05-27T00:49:14.718Z,99.99
2018-05-27T00:50:14.656Z,99.99
2018-05-27T00:51:14.599Z,99.99
2018-05-27T00:52:14.537Z,99.99
2018-05-27T00:53:14.478Z,99.99
2018-05-27T00:54:14.414Z,99.99
2018-05-27T00:55:14.353Z,99.99
2018-05-27T00:56:14.292Z,99.99
2018-05-27T00:57:14.233Z,99.99
2018-05-27T00:58:14.172Z,99.99
2018-05-27T00:59:14.111Z,99.99
2018-05-27T01:00:14.049Z,99.99
2018-05-27T01:01:13.991Z,99.99
2018-05-27T01:02:17.130Z,99.99
2018-05-27T01:03:13.865Z,99.99
2018-05-27T01:04:13.808Z,99.99
2018-05-27T01:05:13.749Z,99.99
2018-05-27T01:06:13.685Z,99.99
2018-05-27T01:07:13.625Z,99.99
2018-05-27T01:08:13.566Z,99.99
2018-05-27T01:09:13.505Z,99.99
2018-05-27T01:10:13.441Z,99.99
2018-05-27T01:11:13.384Z,99.99
2018-05-27T01:12:13.320Z,99.99
2018-05-27T01:13:13.260Z,99.99
2018-05-27T01:14:13.199Z,99.99
2018-05-27T01:15:13.137Z,99.99
2018-05-27T01:16:13.081Z,99.99
2018-05-27T01:17:13.019Z,99.99
2018-05-27T01:18:12.955Z,99.99
2018-05-27T01:19:12.894Z,99.99
2018-05-27T01:20:12.834Z,99.99
2018-05-27T01:21:12.774Z,99.99
2018-05-27T01:22:12.712Z,99.99
2018-05-27T01:23:12.652Z,99.99
2018-05-27T01:24:12.591Z,99.99
2018-05-27T01:25:12.530Z,99.99
2018-05-27T01:26:12.471Z,99.99
2018-05-27T01:27:12.411Z,99.99
2018-05-27T01:28:12.348Z,99.99
2018-05-27T01:29:12.286Z,99.99
2018-05-27T01:30:12.226Z,99.99
2018-05-27T01:31:12.164Z,99.99
2018-05-27T01:32:12.111Z,99.48
2018-05-27T01:33:12.042Z,99.19
2018-05-27T01:34:11.983Z,99.58
2018-05-27T01:35:11.923Z,99.58
2018-05-27T01:36:11.861Z,99.29
2018-05-27T01:37:11.801Z,99.58
2018-05-27T01:38:11.740Z,99.39
2018-05-27T01:39:11.680Z,99.39
2018-05-27T01:40:11.618Z,99.68
2018-05-27T01:41:11.561Z,99.99
2018-05-27T01:42:11.500Z,99.39
2018-05-27T01:43:11.436Z,99.99
2018-05-27T01:44:11.375Z,99.58
2018-05-27T01:45:11.316Z,99.29
2018-05-27T01:46:11.253Z,99.10
2018-05-27T01:47:11.192Z,99.29
2018-05-27T01:48:11.135Z,99.58
2018-05-27T01:49:11.073Z,99.58
2018-05-27T01:50:11.008Z,99.77
2018-05-27T01:51:10.950Z,99.99
2018-05-27T01:52:10.890Z,99.39
2018-05-27T01:53:10.835Z,99.99
2018-05-27T01:54:10.767Z,99.99
2018-05-27T01:55:10.707Z,99.87
2018-05-27T01:56:10.646Z,99.99
2018-05-27T01:57:10.586Z,99.99
2018-05-27T01:58:10.522Z,99.99
2018-05-27T01:59:10.465Z,99.99
2018-05-27T02:00:10.405Z,99.99
2018-05-27T02:01:10.341Z,99.99
2018-05-27T02:02:10.284Z,99.99
2018-05-27T02:03:10.220Z,99.99
2018-05-27T02:04:10.160Z,99.99
2018-05-27T02:05:10.099Z,99.99
2018-05-27T02:06:10.036Z,99.99
2018-05-27T02:07:09.976Z,99.99
2018-05-27T02:08:09.918Z,99.99
2018-05-27T02:09:09.857Z,99.99
2018-05-27T02:10:09.795Z,99.99
2018-05-27T02:11:09.734Z,99.99
2018-05-27T02:12:09.673Z,99.99
2018-05-27T02:13:09.613Z,99.99
2018-05-27T02:14:09.552Z,99.99
2018-05-27T02:15:09.491Z,99.99
2018-05-27T02:16:09.430Z,99.99
2018-05-27T02:17:09.371Z,99.99
2018-05-27T02:18:09.307Z,99.99
2018-05-27T02:19:09.249Z,99.99
2018-05-27T02:20:09.189Z,99.99
2018-05-27T02:21:09.126Z,99.99
2018-05-27T02:22:09.065Z,99.99
2018-05-27T02:23:09.004Z,99.99
2018-05-27T02:24:08.943Z,99.99
2018-05-27T02:25:08.884Z,99.99
2018-05-27T02:26:08.820Z,99.99
2018-05-27T02:27:08.762Z,99.99
2018-05-27T02:28:08.700Z,99.99
2018-05-27T02:29:08.642Z,99.99
2018-05-27T02:30:08.577Z,99.99
2018-05-27T02:31:08.517Z,99.99
2018-05-27T02:32:08.458Z,99.99
2018-05-27T02:33:08.396Z,99.99
2018-05-27T02:34:08.336Z,99.99
2018-05-27T02:35:08.275Z,99.99
2018-05-27T02:36:08.215Z,99.99
2018-05-27T02:37:08.156Z,99.99
2018-05-27T02:38:08.092Z,99.99
2018-05-27T02:39:08.035Z,99.99
2018-05-27T02:40:07.974Z,99.96
2018-05-27T02:41:07.908Z,99.99
2018-05-27T02:42:07.848Z,99.99
2018-05-27T02:43:07.787Z,99.99
2018-05-27T02:44:07.726Z,99.99
2018-05-27T02:45:07.665Z,99.99
2018-05-27T02:46:07.606Z,99.99
2018-05-27T02:47:07.545Z,99.99
2018-05-27T02:48:07.483Z,99.99
2018-05-27T02:49:07.424Z,99.99
2018-05-27T02:50:07.361Z,99.99
2018-05-27T02:51:07.300Z,99.99
2018-05-27T02:52:07.238Z,99.99
2018-05-27T02:53:07.179Z,99.99
2018-05-27T02:54:07.117Z,99.99
2018-05-27T02:55:07.057Z,99.99
2018-05-27T02:56:06.995Z,99.99
2018-05-27T02:57:06.938Z,99.99
2018-05-27T02:58:06.873Z,99.99
2018-05-27T02:59:06.816Z,99.99
2018-05-27T03:00:06.753Z,99.99
2018-05-27T03:01:06.692Z,99.99
2018-05-27T03:02:06.630Z,99.99
2018-05-27T03:03:06.573Z,99.99
2018-05-27T03:04:06.509Z,99.99
2018-05-27T03:05:06.456Z,99.99
2018-05-27T03:06:06.387Z,99.99
2018-05-27T03:07:06.330Z,99.99
2018-05-27T03:08:06.267Z,99.99
2018-05-27T03:09:06.206Z,99.99
2018-05-27T03:10:06.144Z,99.99
2018-05-27T03:11:06.083Z,99.99
2018-05-27T03:12:06.025Z,99.99
2018-05-27T03:13:05.963Z,99.99
2018-05-27T03:14:05.899Z,99.99
2018-05-27T03:15:05.839Z,99.99
2018-05-27T03:16:05.777Z,99.99
2018-05-27T03:17:05.718Z,99.99
2018-05-27T03:18:05.655Z,99.99
2018-05-27T03:19:05.596Z,99.99
2018-05-27T03:20:05.535Z,99.99
2018-05-27T03:21:05.477Z,99.99
2018-05-27T03:22:05.412Z,99.99
2018-05-27T03:23:05.350Z,99.99
2018-05-27T03:24:05.290Z,99.99
2018-05-27T03:25:05.229Z,99.99
2018-05-27T03:26:05.167Z,99.99
2018-05-27T03:27:05.106Z,99.99
2018-05-27T03:28:05.049Z,99.99
2018-05-27T03:29:04.986Z,99.99
2018-05-27T03:30:04.923Z,99.99
2018-05-27T03:31:04.862Z,99.99
2018-05-27T03:32:04.803Z,99.99
2018-05-27T03:33:04.741Z,99.99
2018-05-27T03:34:04.678Z,99.99
2018-05-27T03:35:04.620Z,99.99
2018-05-27T03:36:04.558Z,99.99
2018-05-27T03:37:04.500Z,99.99
2018-05-27T03:38:04.436Z,99.99
2018-05-27T03:39:04.374Z,99.99
2018-05-27T03:40:04.313Z,99.99
2018-05-27T03:41:04.252Z,99.99
2018-05-27T03:42:04.190Z,99.99
2018-05-27T03:43:04.130Z,99.99
2018-05-27T03:44:04.069Z,99.99
2018-05-27T03:45:04.008Z,99.99
2018-05-27T03:46:03.947Z,99.99
2018-05-27T03:47:03.885Z,99.99
2018-05-27T03:48:03.823Z,99.99
2018-05-27T03:49:03.764Z,99.99
2018-05-27T03:50:03.703Z,99.99
2018-05-27T03:51:03.644Z,99.99
2018-05-27T03:52:03.583Z,99.99
2018-05-27T03:53:03.531Z,99.99
2018-05-27T03:54:03.463Z,99.99
2018-05-27T03:55:03.397Z,99.99
2018-05-27T03:56:03.337Z,99.99
2018-05-27T03:57:03.274Z,99.99
2018-05-27T03:58:03.213Z,99.99
2018-05-27T03:59:03.151Z,99.99
2018-05-27T04:00:03.090Z,99.99
2018-05-27T04:01:03.032Z,99.99
2018-05-27T04:02:02.968Z,99.99
2018-05-27T04:03:02.906Z,99.99
2018-05-27T04:04:02.846Z,99.99
2018-05-27T04:05:02.788Z,99.99
2018-05-27T04:06:02.722Z,99.99
2018-05-27T04:07:02.664Z,99.99
2018-05-27T04:08:02.601Z,99.99
2018-05-27T04:09:02.541Z,99.99
2018-05-27T04:10:02.476Z,99.99
2018-05-27T04:11:02.417Z,99.99
2018-05-27T04:12:02.361Z,99.99
2018-05-27T04:13:02.295Z,99.99
2018-05-27T04:14:02.236Z,99.99
2018-05-27T04:15:02.172Z,99.99
2018-05-27T04:16:02.113Z,99.99
2018-05-27T04:17:02.050Z,99.99
2018-05-27T04:18:01.986Z,99.99
2018-05-27T04:19:01.926Z,99.99
2018-05-27T04:20:01.867Z,99.99
2018-05-27T04:21:01.804Z,99.99
2018-05-27T04:22:01.745Z,99.99
2018-05-27T04:23:01.682Z,99.99
2018-05-27T04:24:01.621Z,99.99
2018-05-27T04:25:01.561Z,99.99
2018-05-27T04:26:01.499Z,99.99
2018-05-27T04:27:01.436Z,99.99
2018-05-27T04:28:01.374Z,99.99
2018-05-27T04:29:01.313Z,99.99
2018-05-27T04:30:01.258Z,99.99
2018-05-27T04:31:01.189Z,99.99
2018-05-27T04:32:01.132Z,99.99
2018-05-27T04:33:01.068Z,99.99
2018-05-27T04:34:01.008Z,99.99
2018-05-27T04:35:00.945Z,99.99
2018-05-27T04:36:00.883Z,99.99
2018-05-27T04:37:00.825Z,99.99
2018-05-27T04:38:00.764Z,99.99
2018-05-27T04:39:00.703Z,99.99
2018-05-27T04:40:00.643Z,99.99
2018-05-27T04:41:00.579Z,99.99
2018-05-27T04:42:00.518Z,99.99
2018-05-27T04:43:00.457Z,99.99
2018-05-27T04:44:00.394Z,99.99
2018-05-27T04:45:00.333Z,99.99
2018-05-27T04:46:00.273Z,99.99
2018-05-27T04:47:00.216Z,99.99
2018-05-27T04:48:00.151Z,99.99
2018-05-27T04:49:00.095Z,99.99
2018-05-27T04:50:00.029Z,99.99
2018-05-27T04:50:59.965Z,99.99
2018-05-27T04:51:59.904Z,99.99
2018-05-27T04:52:59.845Z,99.99
2018-05-27T04:53:59.783Z,99.99
2018-05-27T04:54:59.722Z,99.99
2018-05-27T04:55:59.661Z,99.99
2018-05-27T04:56:59.610Z,99.99
2018-05-27T04:57:59.540Z,99.99
2018-05-27T04:58:59.487Z,99.99
2018-05-27T04:59:59.419Z,99.96
2018-05-27T05:00:59.362Z,99.99
2018-05-27T05:01:59.294Z,99.99
2018-05-27T05:02:59.238Z,99.99
2018-05-27T05:03:59.174Z,99.44
2018-05-27T05:04:59.115Z,99.82
2018-05-27T05:05:59.053Z,99.99
2018-05-27T05:06:58.991Z,98.96
2018-05-27T05:07:58.929Z,97.71
2018-05-27T05:08:58.870Z,98.67
2018-05-27T05:09:58.808Z,97.71
2018-05-27T05:10:58.748Z,97.71
2018-05-27T05:11:58.688Z,98.00
2018-05-27T05:12:58.626Z,98.00
2018-05-27T05:13:58.565Z,97.19
2018-05-27T05:14:58.571Z,96.13
2018-05-27T05:15:58.445Z,96.51
2018-05-27T05:16:58.384Z,96.42
2018-05-27T05:17:58.326Z,96.42
2018-05-27T05:18:58.262Z,96.03
2018-05-27T05:19:58.202Z,95.65
2018-05-27T05:20:58.142Z,95.26
2018-05-27T05:21:58.118Z,94.69
2018-05-27T05:22:58.022Z,94.79
2018-05-27T05:23:57.959Z,93.82
2018-05-27T05:24:57.899Z,94.07
2018-05-27T05:25:57.840Z,94.74
2018-05-27T05:26:57.779Z,93.59
2018-05-27T05:27:57.719Z,93.49
2018-05-27T05:28:57.657Z,94.16
2018-05-27T05:29:57.598Z,94.26
2018-05-27T05:30:57.538Z,94.45
2018-05-27T05:31:57.477Z,94.54
2018-05-27T05:32:57.418Z,93.49
2018-05-27T05:33:57.361Z,94.16
2018-05-27T05:34:57.297Z,93.77
2018-05-27T05:35:57.235Z,93.97
2018-05-27T05:36:57.179Z,94.01
2018-05-27T05:37:57.116Z,93.54
2018-05-27T05:38:57.055Z,93.63
2018-05-27T05:39:56.996Z,93.73
2018-05-27T05:40:56.937Z,93.54
2018-05-27T05:41:56.875Z,93.82
2018-05-27T05:42:56.815Z,93.05
2018-05-27T05:43:56.755Z,93.54
2018-05-27T05:44:56.695Z,93.63
2018-05-27T05:45:56.635Z,93.25
2018-05-27T05:46:56.574Z,92.57
2018-05-27T05:47:56.517Z,92.67
2018-05-27T05:48:56.453Z,92.57
2018-05-27T05:49:56.395Z,92.48
2018-05-27T05:50:56.336Z,92.43
2018-05-27T05:51:56.274Z,92.52
2018-05-27T05:52:56.216Z,92.81
2018-05-27T05:53:56.158Z,92.43
2018-05-27T05:54:56.097Z,92.33
2018-05-27T05:55:56.035Z,92.05
2018-05-27T05:56:55.977Z,91.75
2018-05-27T05:57:55.917Z,91.85
2018-05-27T05:58:55.860Z,91.37
2018-05-27T05:59:55.798Z,91.66
2018-05-27T06:00:55.738Z,91.56
2018-05-27T06:01:55.679Z,91.18
2018-05-27T06:02:55.619Z,90.70
2018-05-27T06:03:55.562Z,91.22
2018-05-27T06:04:55.501Z,90.12
2018-05-27T06:05:55.440Z,90.17
2018-05-27T06:06:55.386Z,90.26
2018-05-27T06:07:55.322Z,90.17
2018-05-27T06:08:55.263Z,89.21
2018-05-27T06:09:55.201Z,88.82
2018-05-27T06:10:55.145Z,88.82
2018-05-27T06:11:55.084Z,88.82
2018-05-27T06:12:55.024Z,88.63
2018-05-27T06:13:54.964Z,89.11
2018-05-27T06:14:54.906Z,88.92
2018-05-27T06:15:54.847Z,88.82
2018-05-27T06:16:54.788Z,88.82
2018-05-27T06:17:54.726Z,88.15
2018-05-27T06:18:54.668Z,88.63
2018-05-27T06:19:54.612Z,87.29
2018-05-27T06:20:54.551Z,86.27
2018-05-27T06:21:54.489Z,86.75
2018-05-27T06:22:54.434Z,86.94
2018-05-27T06:23:54.372Z,86.56
2018-05-27T06:24:54.315Z,86.18
2018-05-27T06:25:54.253Z,86.36
2018-05-27T06:26:54.195Z,86.94
2018-05-27T06:27:54.135Z,85.78
2018-05-27T06:28:54.074Z,85.98
2018-05-27T06:29:54.014Z,85.78
2018-05-27T06:30:53.957Z,85.98
2018-05-27T06:31:53.898Z,86.18
2018-05-27T06:32:53.839Z,85.74
2018-05-27T06:33:53.780Z,84.87
2018-05-27T06:34:53.720Z,84.29
2018-05-27T06:35:53.665Z,83.81
2018-05-27T06:36:53.603Z,83.42
2018-05-27T06:37:53.543Z,83.72
2018-05-27T06:38:53.485Z,82.89
2018-05-27T06:39:53.428Z,81.60
2018-05-27T06:40:53.372Z,82.12
2018-05-27T06:41:53.309Z,81.25
2018-05-27T06:42:53.251Z,80.87
2018-05-27T06:43:53.191Z,81.93
2018-05-27T06:44:53.131Z,81.73
2018-05-27T06:45:53.082Z,80.77
2018-05-27T06:46:53.014Z,80.77
2018-05-27T06:47:52.955Z,81.16
2018-05-27T06:48:52.903Z,81.35
2018-05-27T06:49:52.839Z,81.35
2018-05-27T06:50:52.779Z,81.35
2018-05-27T06:51:52.723Z,81.73
2018-05-27T06:52:52.663Z,82.02
2018-05-27T06:53:52.604Z,80.77
2018-05-27T06:54:52.546Z,81.35
2018-05-27T06:55:52.487Z,81.83
2018-05-27T06:56:52.430Z,82.31
2018-05-27T06:57:52.376Z,81.83
2018-05-27T06:58:52.312Z,81.83
2018-05-27T06:59:52.256Z,81.93
2018-05-27T07:00:52.196Z,82.12
2018-05-27T07:01:52.135Z,82.06
2018-05-27T07:02:52.078Z,81.96
2018-05-27T07:03:52.020Z,81.96
2018-05-27T07:04:52.041Z,82.16
2018-05-27T07:05:51.906Z,81.77
2018-05-27T07:06:51.844Z,81.39
2018-05-27T07:07:51.786Z,81.10
2018-05-27T07:08:51.729Z,81.87
2018-05-27T07:09:51.667Z,81.68
2018-05-27T07:10:51.609Z,81.68
2018-05-27T07:11:51.552Z,81.72
2018-05-27T07:12:51.497Z,81.24
2018-05-27T07:13:51.438Z,80.56
2018-05-27T07:14:51.375Z,80.27
2018-05-27T07:15:51.318Z,80.08
2018-05-27T07:16:51.262Z,79.21
2018-05-27T07:17:51.202Z,79.11
2018-05-27T07:18:51.145Z,77.90
2018-05-27T07:19:51.089Z,78.58
2018-05-27T07:20:51.029Z,78.58
2018-05-27T07:21:50.974Z,78.09
2018-05-27T07:22:50.913Z,77.03
2018-05-27T07:23:50.854Z,76.84
2018-05-27T07:24:50.799Z,77.33
2018-05-27T07:25:50.738Z,76.75
2018-05-27T07:26:50.682Z,76.88
2018-05-27T07:27:50.624Z,77.36
2018-05-27T07:28:50.565Z,76.98
2018-05-27T07:29:50.507Z,77.17
2018-05-27T07:30:50.448Z,76.78
2018-05-27T07:31:50.390Z,77.07
2018-05-27T07:32:50.333Z,75.92
2018-05-27T07:33:50.275Z,76.34
2018-05-27T07:34:50.217Z,75.67
2018-05-27T07:35:50.159Z,75.57
2018-05-27T07:36:50.101Z,75.95
2018-05-27T07:37:50.046Z,76.37
2018-05-27T07:38:49.986Z,75.51
2018-05-27T07:39:49.929Z,75.02
2018-05-27T07:40:49.871Z,74.79
2018-05-27T07:41:49.811Z,73.93
2018-05-27T07:42:49.756Z,74.60
2018-05-27T07:43:49.698Z,74.21
2018-05-27T07:44:49.645Z,73.48
2018-05-27T07:45:49.583Z,73.38
2018-05-27T07:46:49.531Z,74.16
2018-05-27T07:47:49.469Z,74.06
2018-05-27T07:48:49.412Z,73.77
2018-05-27T07:49:49.354Z,73.86
2018-05-27T07:50:49.297Z,73.86
2018-05-27T07:51:49.240Z,73.86
2018-05-27T07:52:49.180Z,73.96
2018-05-27T07:53:49.128Z,73.96
2018-05-27T07:54:49.069Z,74.68
2018-05-27T07:55:49.013Z,72.55
2018-05-27T07:56:48.957Z,73.13
2018-05-27T07:57:48.898Z,72.55
2018-05-27T07:58:48.843Z,73.13
2018-05-27T07:59:48.785Z,73.03
2018-05-27T08:00:48.731Z,72.74
2018-05-27T08:01:48.674Z,72.64
2018-05-27T08:02:48.616Z,71.58
2018-05-27T08:03:48.558Z,71.78
2018-05-27T08:04:48.503Z,70.17
2018-05-27T08:05:48.446Z,71.42
2018-05-27T08:06:48.390Z,71.62
2018-05-27T08:07:48.334Z,71.62
2018-05-27T08:08:48.277Z,69.30
2018-05-27T08:09:48.220Z,69.30
2018-05-27T08:10:48.165Z,70.56
2018-05-27T08:11:48.110Z,70.36
2018-05-27T08:12:48.053Z,70.07
2018-05-27T08:13:47.997Z,69.59
2018-05-27T08:14:47.939Z,69.30
2018-05-27T08:15:47.881Z,69.40
2018-05-27T08:16:47.826Z,69.33
2018-05-27T08:17:47.769Z,69.20
2018-05-27T08:18:47.713Z,68.95
2018-05-27T08:19:47.676Z,70.01
2018-05-27T08:20:47.602Z,69.82
2018-05-27T08:21:47.574Z,69.14
2018-05-27T08:22:47.490Z,68.95
2018-05-27T08:23:47.433Z,68.85
2018-05-27T08:24:47.380Z,67.98
2018-05-27T08:25:47.321Z,67.82
2018-05-27T08:26:47.264Z,68.11
2018-05-27T08:27:47.208Z,68.79
2018-05-27T08:28:47.153Z,68.69
2018-05-27T08:29:47.097Z,68.17
2018-05-27T08:30:47.040Z,67.91
2018-05-27T08:31:46.983Z,68.11
2018-05-27T08:32:46.930Z,67.14
2018-05-27T08:33:46.874Z,66.37
2018-05-27T08:34:46.819Z,67.53
2018-05-27T08:35:46.767Z,67.91
2018-05-27T08:36:46.712Z,68.11
2018-05-27T08:37:46.650Z,66.37
2018-05-27T08:38:46.593Z,65.40
2018-05-27T08:39:46.540Z,66.30
2018-05-27T08:40:46.482Z,65.72
2018-05-27T08:41:46.431Z,65.14
2018-05-27T08:42:46.374Z,63.92
2018-05-27T08:43:46.316Z,63.62
2018-05-27T08:44:46.260Z,62.27
2018-05-27T08:45:46.203Z,61.59
2018-05-27T08:46:46.147Z,60.75
2018-05-27T08:47:46.092Z,61.98
2018-05-27T08:48:46.035Z,62.17
2018-05-27T08:49:45.982Z,62.46
2018-05-27T08:50:45.924Z,62.27
2018-05-27T08:51:45.873Z,63.04
2018-05-27T08:52:45.815Z,63.79
2018-05-27T08:53:45.758Z,64.47
2018-05-27T08:54:45.701Z,63.98
2018-05-27T08:55:45.647Z,63.89
2018-05-27T08:56:45.593Z,64.01
2018-05-27T08:57:45.537Z,63.72
2018-05-27T08:58:45.480Z,64.20
2018-05-27T08:59:45.424Z,64.89
2018-05-27T09:00:45.370Z,63.82
2018-05-27T09:01:45.313Z,63.92
2018-05-27T09:02:45.260Z,63.37
2018-05-27T09:03:45.252Z,62.79
2018-05-27T09:04:45.149Z,63.65
2018-05-27T09:05:45.090Z,62.98
2018-05-27T09:06:45.037Z,62.79
2018-05-27T09:07:44.980Z,62.30
2018-05-27T09:08:44.926Z,62.23
2018-05-27T09:09:44.869Z,60.91
2018-05-27T09:10:44.815Z,60.55
2018-05-27T09:11:44.759Z,59.90
2018-05-27T09:12:44.704Z,57.28
2018-05-27T09:13:44.649Z,56.14
2018-05-27T09:14:44.593Z,54.32
2018-05-27T09:15:44.539Z,53.64
2018-05-27T09:16:44.483Z,53.28
2018-05-27T09:17:44.427Z,53.18
2018-05-27T09:18:44.372Z,52.40
2018-05-27T09:19:44.319Z,51.84
2018-05-27T09:20:44.262Z,51.45
2018-05-27T09:21:44.207Z,50.60
2018-05-27T09:22:44.154Z,50.60
2018-05-27T09:23:44.098Z,50.04
2018-05-27T09:24:44.060Z,48.88
2018-05-27T09:25:43.989Z,47.56
2018-05-27T09:26:43.936Z,46.31
2018-05-27T09:27:43.884Z,45.25
2018-05-27T09:28:43.829Z,45.26
2018-05-27T09:29:43.776Z,46.04
2018-05-27T09:30:43.721Z,46.44
2018-05-27T09:31:43.670Z,46.04
2018-05-27T09:32:43.615Z,45.78
2018-05-27T09:33:43.561Z,45.21
2018-05-27T09:34:43.510Z,44.06
2018-05-27T09:35:43.459Z,44.16
2018-05-27T09:36:43.411Z,42.89
2018-05-27T09:37:43.354Z,43.20
2018-05-27T09:38:43.302Z,42.35
2018-05-27T09:39:43.252Z,42.74
2018-05-27T09:40:43.200Z,42.35
2018-05-27T09:41:43.148Z,43.30
2018-05-27T09:42:43.099Z,43.16
2018-05-27T09:43:43.047Z,42.19
2018-05-27T09:44:42.998Z,42.99
2018-05-27T09:45:42.947Z,42.60
2018-05-27T09:46:42.902Z,43.18
2018-05-27T09:47:42.851Z,44.24
2018-05-27T09:48:42.798Z,38.55
2018-05-27T09:49:42.750Z,38.53
2018-05-27T09:50:42.697Z,37.87
2018-05-27T09:51:42.648Z,38.28
2018-05-27T09:52:42.598Z,38.69
2018-05-27T09:53:42.549Z,39.67
2018-05-27T09:54:42.497Z,40.33
2018-05-27T09:55:42.449Z,39.59
2018-05-27T09:56:42.400Z,38.53
2018-05-27T09:57:42.348Z,38.94
2018-05-27T09:58:42.300Z,38.55
2018-05-27T09:59:42.251Z,36.71
2018-05-27T10:00:42.201Z,37.29
2018-05-27T10:01:42.150Z,37.95
2018-05-27T10:02:42.103Z,38.90
2018-05-27T10:03:42.055Z,39.67
2018-05-27T10:04:42.005Z,40.64
2018-05-27T10:05:41.955Z,40.72
2018-05-27T10:06:41.908Z,41.41
2018-05-27T10:07:41.860Z,40.64
2018-05-27T10:08:41.809Z,40.82
2018-05-27T10:09:41.760Z,41.11
2018-05-27T10:10:41.712Z,41.62
2018-05-27T10:11:41.714Z,40.63
2018-05-27T10:12:41.636Z,40.80
2018-05-27T10:13:41.566Z,41.35
2018-05-27T10:14:41.519Z,43.52
2018-05-27T10:15:41.470Z,45.64
2018-05-27T10:16:41.423Z,46.20
2018-05-27T10:17:41.374Z,46.40
2018-05-27T10:18:41.324Z,47.83
2018-05-27T10:19:41.275Z,48.88
2018-05-27T10:20:41.225Z,49.76
2018-05-27T10:21:41.176Z,49.37
2018-05-27T10:22:41.127Z,49.17
2018-05-27T10:23:41.077Z,50.12
2018-05-27T10:24:41.027Z,50.12
2018-05-27T10:25:40.974Z,49.82
2018-05-27T10:26:40.925Z,50.73
2018-05-27T10:27:40.875Z,50.92
2018-05-27T10:28:40.825Z,50.63
2018-05-27T10:29:40.772Z,48.90
2018-05-27T10:30:40.722Z,47.20
2018-05-27T10:31:40.678Z,47.69
2018-05-27T10:32:40.619Z,44.90
2018-05-27T10:33:40.567Z,42.76
2018-05-27T10:34:40.518Z,43.13
2018-05-27T10:35:40.465Z,44.13
2018-05-27T10:36:40.415Z,46.15
2018-05-27T10:37:40.361Z,46.42
2018-05-27T10:38:40.311Z,46.78
2018-05-27T10:39:40.258Z,47.05
2018-05-27T10:40:40.207Z,48.51
2018-05-27T10:41:40.155Z,48.78
2018-05-27T10:42:40.102Z,50.89
2018-05-27T10:43:40.052Z,51.28
2018-05-27T10:44:40.003Z,50.89
2018-05-27T10:45:39.947Z,53.49
2018-05-27T10:46:39.894Z,52.91
2018-05-27T10:47:39.842Z,50.65
2018-05-27T10:48:39.791Z,52.40
2018-05-27T10:49:39.738Z,50.84
2018-05-27T10:50:39.684Z,51.33
2018-05-27T10:51:39.632Z,50.84
2018-05-27T10:52:39.577Z,51.91
2018-05-27T10:53:39.524Z,51.04
2018-05-27T10:54:39.473Z,53.34
2018-05-27T10:55:39.420Z,53.24
2018-05-27T10:56:39.365Z,51.67
2018-05-27T10:57:39.315Z,51.28
2018-05-27T10:58:39.261Z,52.93
2018-05-27T10:59:39.205Z,52.64
2018-05-27T11:00:39.152Z,52.64
2018-05-27T11:01:39.120Z,54.48
2018-05-27T11:02:39.050Z,54.67
2018-05-27T11:03:38.989Z,53.99
2018-05-27T11:04:38.936Z,53.51
2018-05-27T11:05:38.936Z,53.31
2018-05-27T11:06:38.829Z,55.52
2018-05-27T11:07:38.774Z,53.87
2018-05-27T11:08:38.721Z,53.99
2018-05-27T11:09:38.667Z,53.51
2018-05-27T11:10:38.612Z,54.38
2018-05-27T11:11:38.561Z,51.86
2018-05-27T11:12:38.504Z,51.18
2018-05-27T11:13:38.453Z,51.67
2018-05-27T11:14:38.395Z,52.64
2018-05-27T11:15:38.340Z,53.12
2018-05-27T11:16:38.287Z,52.83
2018-05-27T11:17:38.232Z,53.05
2018-05-27T11:18:38.177Z,52.47
2018-05-27T11:19:38.124Z,51.69
2018-05-27T11:20:38.074Z,52.37
2018-05-27T11:21:38.015Z,51.91
2018-05-27T11:22:37.959Z,53.95
2018-05-27T11:23:37.904Z,57.06
2018-05-27T11:24:37.851Z,56.96
2018-05-27T11:25:37.796Z,57.15
2018-05-27T11:26:37.739Z,57.15
2018-05-27T11:27:37.686Z,57.44
2018-05-27T11:28:37.631Z,58.12
2018-05-27T11:29:37.578Z,58.80
2018-05-27T11:30:37.523Z,58.12
2018-05-27T11:31:37.467Z,56.79
2018-05-27T11:32:37.414Z,57.47
2018-05-27T11:33:37.359Z,55.92
2018-05-27T11:34:37.304Z,56.79
2018-05-27T11:35:37.294Z,55.82
2018-05-27T11:36:37.196Z,56.21
2018-05-27T11:37:37.145Z,56.21
2018-05-27T11:38:37.086Z,57.28
2018-05-27T11:39:37.033Z,56.30
2018-05-27T11:40:36.978Z,56.40
2018-05-27T11:41:36.922Z,56.89
2018-05-27T11:42:36.870Z,56.40
2018-05-27T11:43:36.854Z,55.73
2018-05-27T11:44:36.761Z,55.33
2018-05-27T11:45:36.705Z,56.01
2018-05-27T11:46:36.658Z,57.37
2018-05-27T11:47:36.596Z,56.21
2018-05-27T11:48:36.548Z,56.50
2018-05-27T11:49:36.488Z,57.76
2018-05-27T11:50:36.438Z,57.37
2018-05-27T11:51:36.381Z,56.01
2018-05-27T11:52:36.324Z,56.89
2018-05-27T11:53:36.273Z,58.44
2018-05-27T11:54:36.217Z,58.93
2018-05-27T11:55:36.161Z,58.25
2018-05-27T11:56:36.110Z,58.93
2018-05-27T11:57:36.053Z,58.25
2018-05-27T11:58:35.999Z,57.37
2018-05-27T11:59:35.946Z,55.63
2018-05-27T12:00:35.891Z,55.33
2018-05-27T12:01:35.844Z,54.27
2018-05-27T12:02:35.783Z,54.94
2018-05-27T12:03:35.728Z,55.92
2018-05-27T12:04:35.673Z,55.33
2018-05-27T12:05:35.617Z,55.92
2018-05-27T12:06:35.565Z,56.60
2018-05-27T12:07:35.509Z,57.37
2018-05-27T12:08:35.456Z,55.43
2018-05-27T12:09:35.531Z,55.63
2018-05-27T12:10:35.344Z,55.73
2018-05-27T12:11:35.293Z,56.01
2018-05-27T12:12:35.232Z,54.66
2018-05-27T12:13:35.184Z,54.66
2018-05-27T12:14:35.134Z,55.53
2018-05-27T12:15:35.079Z,53.81
2018-05-27T12:16:35.018Z,54.78
2018-05-27T12:17:34.963Z,56.52
2018-05-27T12:18:34.908Z,55.55
2018-05-27T12:19:34.856Z,54.78
2018-05-27T12:20:34.802Z,54.20
2018-05-27T12:21:34.748Z,55.85
2018-05-27T12:22:34.691Z,53.03
2018-05-27T12:23:34.638Z,54.75
2018-05-27T12:24:34.581Z,55.24
2018-05-27T12:25:34.527Z,54.07
2018-05-27T12:26:34.475Z,54.07
2018-05-27T12:27:34.419Z,55.63
2018-05-27T12:28:34.364Z,56.21
2018-05-27T12:29:34.309Z,56.30
2018-05-27T12:30:34.255Z,56.40
2018-05-27T12:31:34.200Z,55.63
2018-05-27T12:32:34.145Z,55.92
2018-05-27T12:33:34.091Z,55.53
2018-05-27T12:34:34.036Z,54.36
2018-05-27T12:35:33.983Z,53.59
2018-05-27T12:36:33.928Z,53.59
2018-05-27T12:37:33.872Z,54.94
2018-05-27T12:38:33.822Z,54.36
2018-05-27T12:39:33.764Z,53.30
2018-05-27T12:40:33.709Z,53.97
2018-05-27T12:41:33.656Z,54.17
2018-05-27T12:42:33.602Z,54.46
2018-05-27T12:43:33.546Z,54.56
2018-05-27T12:44:33.493Z,54.07
2018-05-27T12:45:33.436Z,54.07
2018-05-27T12:46:33.382Z,52.45
2018-05-27T12:47:33.328Z,54.39
2018-05-27T12:48:33.272Z,54.49
2018-05-27T12:49:33.217Z,54.97
2018-05-27T12:50:33.178Z,53.52
2018-05-27T12:51:33.108Z,53.61